Rankings de siempre
Mejores tiempos personales válidos de atleta a través de todos los eventos y temporadas. Cada atleta aparece una vez por división.
Busca por nombre y abre la página donde está clasificado este récord de división.
104,221 atletas clasificados
| Pos. | Pos. AG | Atleta | Nacionalidad | Categoría de edad | TiempoMejor tiempo | Diferencia |
|---|---|---|---|---|---|---|
| 91126 | #16775 | Anna BurchallNZL · W 35-39 · AG #16775 | NZL | W 35-39 | 2:00:42 | +81:06 |
| 91127 | #22048 | Blanca Lorenzo BrantuasESP · W 25-29 · AG #22048 | ESP | W 25-29 | 2:00:42 | +81:06 |
| 91128 | #22049 | Aarushi AroraIND · W 25-29 · AG #22049 | IND | W 25-29 | 2:00:42 | +81:06 |
| 91129 | #16776 | Cynthia WrightUSA · W 35-39 · AG #16776 | USA | W 35-39 | 2:00:42 | +81:06 |
| 91130 | #12788 | Tatjana MileticAUT · W 16-24 · AG #12788 | AUT | W 16-24 | 2:00:42 | +81:06 |
| 91131 | #21759 | Samantha IrvingGBR · W 30-34 · AG #21759 | GBR | W 30-34 | 2:00:42 | +81:06 |
| 91132 | #22050 | 筱敏 張TPE · W 25-29 · AG #22050 | TPE | W 25-29 | 2:00:42 | +81:06 |
| 91133 | #21760 | Mariela De La RivaGUA · W 30-34 · AG #21760 | GUA | W 30-34 | 2:00:42 | +81:06 |
| 91134 | #12789 | Camille GattepailleFRA · W 16-24 · AG #12789 | FRA | W 16-24 | 2:00:42 | +81:06 |
| 91135 | #16777 | Charmaine JamesGBR · W 35-39 · AG #16777 | GBR | W 35-39 | 2:00:42 | +81:06 |
| 91136 | #6640 | Anne RadermacherGER · W 45-49 · AG #6640 | GER | W 45-49 | 2:00:43 | +81:07 |
| 91137 | #22051 | Yanran YeCHN · W 25-29 · AG #22051 | CHN | W 25-29 | 2:00:43 | +81:07 |
| 91138 | #16779 | 云 彭CHN · W 35-39 · AG #16779 | CHN | W 35-39 | 2:00:43 | +81:07 |
| 91139 | #3186 | Yoloxochitl Azcorra VillaseñorMEX · W 50-54 · AG #3186 | MEX | W 50-54 | 2:00:43 | +81:07 |
| 91140 | #21761 | Soph Bailey-SmithGBR · W 30-34 · AG #21761 | GBR | W 30-34 | 2:00:43 | +81:07 |
| 91141 | #11809 | Eva EliassonSWE · W 40-44 · AG #11809 | SWE | W 40-44 | 2:00:43 | +81:07 |
| 91142 | #3187 | Sarah GrimshawGBR · W 50-54 · AG #3187 | GBR | W 50-54 | 2:00:43 | +81:07 |
| 91143 | #21762 | Emily DewarCAN · W 30-34 · AG #21762 | CAN | W 30-34 | 2:00:43 | +81:07 |
| 91144 | #6641 | Heather Dall'AsteUSA · W 45-49 · AG #6641 | USA | W 45-49 | 2:00:43 | +81:07 |
| 91145 | #16778 | Kendra GillgrenUSA · W 35-39 · AG #16778 | USA | W 35-39 | 2:00:43 | +81:07 |
| 91146 | #12790 | Pauline-Marie GauthierFRA · W 16-24 · AG #12790 | FRA | W 16-24 | 2:00:43 | +81:07 |
| 91147 | #22052 | Alondra Guadalupe Hernandez GomezMEX · W 25-29 · AG #22052 | MEX | W 25-29 | 2:00:43 | +81:07 |
| 91148 | #21763 | cat ericksonUSA · W 30-34 · AG #21763 | USA | W 30-34 | 2:00:44 | +81:08 |
| 91149 | #16780 | TEHANI KANEUSA · W 35-39 · AG #16780 | USA | W 35-39 | 2:00:44 | +81:08 |
| 91150 | #16781 | Nele SchulzeGBR · W 35-39 · AG #16781 | GBR | W 35-39 | 2:00:44 | +81:08 |
Página 3,646 de 4,169